This is the latest recevied weather packets stored in our database for station/object N6XE-13. If no packets are shown the sender has not sent any weather packets the latest 10 day(s).
| Time | Temp. | Humidity | Pressure | Rain* | Wind** | Luminosity | Snow |
|---|---|---|---|---|---|---|---|
| 1778112005 | 26.67° C | 53% | 1019.4 hPa | 0 mm | - | - | - |
| 1778110205 | 26.67° C | 53% | 1019.7 hPa | 0 mm | - | - | - |
| 1778108405 | 26.67° C | 53% | 1019.9 hPa | 0 mm | - | - | - |
| 1778106605 | 26.11° C | 53% | 1020.6 hPa | 0 mm | - | - | - |
| 1778104805 | 25.56° C | 53% | 1020.9 hPa | 0 mm | - | - | - |
| 1778103005 | 25.56° C | 53% | 1021.1 hPa | 0 mm | - | - | - |
| 1778101206 | 25° C | 54% | 1021.4 hPa | 0 mm | - | - | - |
| 1778099406 | 24.44° C | 56% | 1022 hPa | 0 mm | - | - | - |
| 1778097606 | 23.33° C | 58% | 1022.2 hPa | 0 mm | - | - | - |
| 1778095806 | 23.33° C | 57% | 1022.5 hPa | 0 mm | - | - | - |
| 1778029205 | 18.33° C | 72% | 1018.1 hPa | 0 mm | - | - | - |
| 1778027405 | 18.89° C | 72% | 1018 hPa | 0 mm | - | - | - |
| 1778025606 | 18.33° C | 74% | 1017.9 hPa | 0 mm | - | - | - |
| 1778023806 | 18.33° C | 75% | 1017.9 hPa | 0 mm | - | - | - |
| 1778022006 | 18.33° C | 76% | 1017.9 hPa | 0 mm | - | - | - |
| 1778020206 | 18.33° C | 76% | 1018.2 hPa | 0 mm | - | - | - |
| 1778018406 | 17.22° C | 79% | 1018.4 hPa | 0 mm | - | - | - |
| 1778016606 | 16.67° C | 80% | 1018.5 hPa | 0 mm | - | - | - |
| 1778014806 | 16.67° C | 81% | 1018.6 hPa | 0 mm | - | - | - |
| 1778013006 | 16.67° C | 81% | 1018.6 hPa | 0 mm | - | - | - |
| 1778011205 | 16.67° C | 82% | 1018.9 hPa | 0 mm | - | - | - |
| 1778009405 | 16.11° C | 83% | 1018.7 hPa | 0 mm | - | - | - |
| 1778005805 | 15° C | 86% | 1018.6 hPa | 0 mm | - | - | - |
| 1778004005 | 15° C | 85% | 1018.3 hPa | 0 mm | - | - | - |
| 1778002205 | 14.44° C | 89% | 1018.2 hPa | 0 mm | - | - | - |
* Rain latest hour (hover to see other rain measurements)
** Current wind speed in m/s (hover to see current wind gust speed)